sensor_id;sensor_type;location;lat;lon;timestamp;pressure;altitude;pressure_sealevel;temperature;humidity
51460;BME280;37534;39.772;2.718;2023-11-21T00:00:14;101243.72;;;15.39;100.00
51460;BME280;37534;39.772;2.718;2023-11-21T00:02:41;101210.50;;;15.24;100.00
51460;BME280;37534;39.772;2.718;2023-11-21T00:05:10;101215.94;;;15.18;100.00
51460;BME280;37534;39.772;2.718;2023-11-21T00:07:37;101198.88;;;15.11;100.00
51460;BME280;37534;39.772;2.718;2023-11-21T00:10:03;101187.03;;;15.04;100.00
51460;BME280;37534;39.772;2.718;2023-11-21T00:12:31;101194.41;;;15.14;100.00
51460;BME280;37534;39.772;2.718;2023-11-21T00:14:57;101204.19;;;15.08;100.00
51460;BME280;37534;39.772;2.718;2023-11-21T00:17:23;101191.47;;;15.00;100.00
51460;BME280;37534;39.772;2.718;2023-11-21T00:19:49;101233.16;;;15.20;100.00
51460;BME280;37534;39.772;2.718;2023-11-21T00:22:17;101224.97;;;15.08;100.00
51460;BME280;37534;39.772;2.718;2023-11-21T00:24:43;101228.31;;;15.11;100.00
51460;BME280;37534;39.772;2.718;2023-11-21T00:27:09;101228.50;;;15.07;100.00
51460;BME280;37534;39.772;2.718;2023-11-21T00:29:34;101165.66;;;14.72;100.00
51460;BME280;37534;39.772;2.718;2023-11-21T00:32:00;101231.09;;;15.07;100.00
51460;BME280;37534;39.772;2.718;2023-11-21T00:34:28;101158.31;;;14.59;100.00
51460;BME280;37534;39.772;2.718;2023-11-21T00:36:54;101195.09;;;14.96;100.00
51460;BME280;37534;39.772;2.718;2023-11-21T00:39:34;101163.75;;;14.77;100.00
51460;BME280;37534;39.772;2.718;2023-11-21T00:42:00;101201.03;;;14.99;100.00
51460;BME280;37534;39.772;2.718;2023-11-21T00:44:26;101178.66;;;14.95;100.00
51460;BME280;37534;39.772;2.718;2023-11-21T00:47:04;101218.38;;;15.23;100.00
51460;BME280;37534;39.772;2.718;2023-11-21T00:49:46;101195.25;;;15.15;100.00
51460;BME280;37534;39.772;2.718;2023-11-21T00:52:27;101185.31;;;15.26;100.00
51460;BME280;37534;39.772;2.718;2023-11-21T00:54:58;101198.31;;;15.26;100.00
51460;BME280;37534;39.772;2.718;2023-11-21T00:57:26;101208.47;;;15.32;100.00
51460;BME280;37534;39.772;2.718;2023-11-21T00:59:52;101164.41;;;15.06;100.00
51460;BME280;37534;39.772;2.718;2023-11-21T01:02:18;101199.38;;;15.20;100.00
51460;BME280;37534;39.772;2.718;2023-11-21T01:04:43;101208.41;;;15.34;100.00
51460;BME280;37534;39.772;2.718;2023-11-21T01:07:09;101152.44;;;15.01;100.00
51460;BME280;37534;39.772;2.718;2023-11-21T01:09:35;101197.28;;;15.30;100.00
51460;BME280;37534;39.772;2.718;2023-11-21T01:12:00;101143.41;;;14.88;100.00
51460;BME280;37534;39.772;2.718;2023-11-21T01:14:27;101233.56;;;15.33;100.00
51460;BME280;37534;39.772;2.718;2023-11-21T01:16:53;101184.53;;;15.00;100.00
51460;BME280;37534;39.772;2.718;2023-11-21T01:19:18;101171.00;;;14.92;100.00
51460;BME280;37534;39.772;2.718;2023-11-21T01:21:44;101205.66;;;15.15;100.00
51460;BME280;37534;39.772;2.718;2023-11-21T01:24:10;101175.31;;;14.92;100.00
51460;BME280;37534;39.772;2.718;2023-11-21T01:26:35;101228.53;;;15.29;100.00
51460;BME280;37534;39.772;2.718;2023-11-21T01:29:01;101176.63;;;15.04;100.00
51460;BME280;37534;39.772;2.718;2023-11-21T01:31:29;101172.16;;;15.07;100.00
51460;BME280;37534;39.772;2.718;2023-11-21T01:33:58;101185.88;;;15.11;100.00
51460;BME280;37534;39.772;2.718;2023-11-21T01:36:30;101195.03;;;15.21;100.00
51460;BME280;37534;39.772;2.718;2023-11-21T01:38:57;101211.22;;;15.28;100.00
51460;BME280;37534;39.772;2.718;2023-11-21T01:41:27;101181.41;;;15.14;100.00
51460;BME280;37534;39.772;2.718;2023-11-21T01:43:56;101161.13;;;15.00;100.00
51460;BME280;37534;39.772;2.718;2023-11-21T01:46:24;101232.19;;;15.47;100.00
51460;BME280;37534;39.772;2.718;2023-11-21T01:48:53;101241.34;;;15.57;100.00
51460;BME280;37534;39.772;2.718;2023-11-21T01:51:21;101178.56;;;15.20;100.00
51460;BME280;37534;39.772;2.718;2023-11-21T01:53:47;101181.84;;;15.26;100.00
51460;BME280;37534;39.772;2.718;2023-11-21T01:56:13;101157.19;;;15.14;100.00
51460;BME280;37534;39.772;2.718;2023-11-21T01:58:40;101163.97;;;15.18;100.00
51460;BME280;37534;39.772;2.718;2023-11-21T02:01:06;101164.53;;;15.26;100.00
51460;BME280;37534;39.772;2.718;2023-11-21T02:03:32;101219.50;;;15.61;100.00
51460;BME280;37534;39.772;2.718;2023-11-21T02:05:57;101184.84;;;15.38;100.00
51460;BME280;37534;39.772;2.718;2023-11-21T02:08:23;101206.03;;;15.51;100.00
51460;BME280;37534;39.772;2.718;2023-11-21T02:10:49;101203.78;;;15.42;100.00
51460;BME280;37534;39.772;2.718;2023-11-21T02:13:15;101224.84;;;15.58;100.00
51460;BME280;37534;39.772;2.718;2023-11-21T02:15:41;101143.75;;;15.02;100.00
51460;BME280;37534;39.772;2.718;2023-11-21T02:18:07;101148.63;;;15.12;100.00
51460;BME280;37534;39.772;2.718;2023-11-21T02:20:35;101192.75;;;15.35;100.00
51460;BME280;37534;39.772;2.718;2023-11-21T02:23:02;101196.03;;;15.40;100.00
51460;BME280;37534;39.772;2.718;2023-11-21T02:25:32;101182.47;;;15.32;100.00
51460;BME280;37534;39.772;2.718;2023-11-21T02:28:00;101194.09;;;15.46;100.00
51460;BME280;37534;39.772;2.718;2023-11-21T02:30:27;101195.56;;;15.53;100.00
51460;BME280;37534;39.772;2.718;2023-11-21T02:32:56;101190.53;;;15.48;100.00
51460;BME280;37534;39.772;2.718;2023-11-21T02:35:24;101186.84;;;15.54;100.00
51460;BME280;37534;39.772;2.718;2023-11-21T02:37:53;101186.94;;;15.51;100.00
51460;BME280;37534;39.772;2.718;2023-11-21T02:40:19;101221.69;;;15.72;100.00
51460;BME280;37534;39.772;2.718;2023-11-21T02:42:50;101224.22;;;15.73;100.00
51460;BME280;37534;39.772;2.718;2023-11-21T02:45:17;101216.84;;;15.63;100.00
51460;BME280;37534;39.772;2.718;2023-11-21T02:47:43;101227.63;;;15.75;100.00
51460;BME280;37534;39.772;2.718;2023-11-21T02:50:09;101206.63;;;15.58;100.00
51460;BME280;37534;39.772;2.718;2023-11-21T02:52:35;101188.59;;;15.53;100.00
51460;BME280;37534;39.772;2.718;2023-11-21T02:55:04;101225.47;;;15.87;100.00
51460;BME280;37534;39.772;2.718;2023-11-21T02:57:29;101213.81;;;15.73;100.00
51460;BME280;37534;39.772;2.718;2023-11-21T02:59:55;101217.94;;;15.79;100.00
51460;BME280;37534;39.772;2.718;2023-11-21T03:02:21;101194.09;;;15.68;100.00
51460;BME280;37534;39.772;2.718;2023-11-21T03:04:48;101201.00;;;15.69;100.00
51460;BME280;37534;39.772;2.718;2023-11-21T03:07:19;101151.28;;;15.32;100.00
51460;BME280;37534;39.772;2.718;2023-11-21T03:09:45;101215.44;;;15.77;100.00
51460;BME280;37534;39.772;2.718;2023-11-21T03:12:11;101220.94;;;15.68;100.00
51460;BME280;37534;39.772;2.718;2023-11-21T03:14:41;101195.47;;;15.54;100.00
51460;BME280;37534;39.772;2.718;2023-11-21T03:17:06;101209.97;;;15.62;100.00
51460;BME280;37534;39.772;2.718;2023-11-21T03:19:32;101146.91;;;15.33;100.00
51460;BME280;37534;39.772;2.718;2023-11-21T03:21:58;101136.16;;;15.20;100.00
51460;BME280;37534;39.772;2.718;2023-11-21T03:24:24;101201.97;;;15.66;100.00
51460;BME280;37534;39.772;2.718;2023-11-21T03:26:50;101147.88;;;15.30;100.00
51460;BME280;37534;39.772;2.718;2023-11-21T03:29:16;101137.66;;;15.26;100.00
51460;BME280;37534;39.772;2.718;2023-11-21T03:31:42;101163.97;;;15.40;100.00
51460;BME280;37534;39.772;2.718;2023-11-21T03:34:11;101152.97;;;15.33;100.00
51460;BME280;37534;39.772;2.718;2023-11-21T03:36:39;101137.72;;;15.24;100.00
51460;BME280;37534;39.772;2.718;2023-11-21T03:39:05;101158.97;;;15.35;100.00
51460;BME280;37534;39.772;2.718;2023-11-21T03:41:30;101153.72;;;15.37;100.00
51460;BME280;37534;39.772;2.718;2023-11-21T03:43:56;101190.59;;;15.69;100.00
51460;BME280;37534;39.772;2.718;2023-11-21T03:46:21;101181.94;;;15.68;100.00
51460;BME280;37534;39.772;2.718;2023-11-21T03:48:47;101167.38;;;15.64;100.00
51460;BME280;37534;39.772;2.718;2023-11-21T03:51:12;101151.94;;;15.59;100.00
51460;BME280;37534;39.772;2.718;2023-11-21T03:53:38;101199.84;;;15.77;100.00
51460;BME280;37534;39.772;2.718;2023-11-21T03:56:04;101179.59;;;15.62;100.00
51460;BME280;37534;39.772;2.718;2023-11-21T03:58:30;101181.25;;;15.63;100.00
51460;BME280;37534;39.772;2.718;2023-11-21T04:00:56;101161.66;;;15.54;100.00
51460;BME280;37534;39.772;2.718;2023-11-21T04:03:21;101175.91;;;15.68;100.00
51460;BME280;37534;39.772;2.718;2023-11-21T04:05:47;101143.22;;;15.61;100.00
51460;BME280;37534;39.772;2.718;2023-11-21T04:08:12;101156.13;;;15.64;100.00
51460;BME280;37534;39.772;2.718;2023-11-21T04:10:38;101180.94;;;15.72;100.00
51460;BME280;37534;39.772;2.718;2023-11-21T04:13:05;101165.81;;;15.60;100.00
51460;BME280;37534;39.772;2.718;2023-11-21T04:15:32;101198.22;;;15.73;100.00
51460;BME280;37534;39.772;2.718;2023-11-21T04:17:58;101174.38;;;15.62;100.00
51460;BME280;37534;39.772;2.718;2023-11-21T04:20:26;101175.22;;;15.63;100.00
51460;BME280;37534;39.772;2.718;2023-11-21T04:22:52;101150.31;;;15.57;100.00
51460;BME280;37534;39.772;2.718;2023-11-21T04:25:18;101180.69;;;15.78;100.00
51460;BME280;37534;39.772;2.718;2023-11-21T04:27:44;101126.13;;;15.55;100.00
51460;BME280;37534;39.772;2.718;2023-11-21T04:30:13;101144.84;;;15.63;100.00
51460;BME280;37534;39.772;2.718;2023-11-21T04:32:39;101126.56;;;15.44;100.00
51460;BME280;37534;39.772;2.718;2023-11-21T04:35:05;101142.41;;;15.60;100.00
51460;BME280;37534;39.772;2.718;2023-11-21T04:37:31;101142.78;;;15.71;100.00
51460;BME280;37534;39.772;2.718;2023-11-21T04:39:57;101178.88;;;15.81;100.00
51460;BME280;37534;39.772;2.718;2023-11-21T04:42:22;101157.13;;;15.59;100.00
51460;BME280;37534;39.772;2.718;2023-11-21T04:44:49;101137.06;;;15.41;100.00
51460;BME280;37534;39.772;2.718;2023-11-21T04:47:14;101111.91;;;15.19;100.00
51460;BME280;37534;39.772;2.718;2023-11-21T04:49:43;101163.31;;;15.57;100.00
51460;BME280;37534;39.772;2.718;2023-11-21T04:52:09;101103.44;;;15.14;100.00
51460;BME280;37534;39.772;2.718;2023-11-21T04:54:35;101155.75;;;15.51;100.00
51460;BME280;37534;39.772;2.718;2023-11-21T04:57:01;101133.50;;;15.21;100.00
51460;BME280;37534;39.772;2.718;2023-11-21T04:59:27;101134.03;;;15.08;100.00
51460;BME280;37534;39.772;2.718;2023-11-21T05:01:53;101197.34;;;15.51;100.00
51460;BME280;37534;39.772;2.718;2023-11-21T05:04:19;101184.03;;;15.36;100.00
51460;BME280;37534;39.772;2.718;2023-11-21T05:06:46;101144.06;;;15.17;100.00
51460;BME280;37534;39.772;2.718;2023-11-21T05:09:13;101176.78;;;15.23;100.00
51460;BME280;37534;39.772;2.718;2023-11-21T05:11:38;101163.16;;;15.16;100.00
51460;BME280;37534;39.772;2.718;2023-11-21T14:10:29;101039.06;;;24.73;42.94
51460;BME280;37534;39.772;2.718;2023-11-21T14:13:10;101066.91;;;24.09;42.54
51460;BME280;37534;39.772;2.718;2023-11-21T14:15:41;101050.69;;;23.09;44.93
51460;BME280;37534;39.772;2.718;2023-11-21T14:18:10;101038.22;;;22.63;46.54
51460;BME280;37534;39.772;2.718;2023-11-21T14:20:37;101051.69;;;22.71;47.86
51460;BME280;37534;39.772;2.718;2023-11-21T14:23:05;101012.09;;;22.48;49.23
51460;BME280;37534;39.772;2.718;2023-11-21T14:25:33;101032.63;;;22.30;50.96
51460;BME280;37534;39.772;2.718;2023-11-21T14:28:00;101060.41;;;21.43;55.57
51460;BME280;37534;39.772;2.718;2023-11-21T14:30:26;101042.72;;;21.59;57.53
51460;BME280;37534;39.772;2.718;2023-11-21T14:32:52;101055.75;;;21.74;58.57
51460;BME280;37534;39.772;2.718;2023-11-21T14:35:18;101045.78;;;21.39;60.09
51460;BME280;37534;39.772;2.718;2023-11-21T14:37:43;101042.59;;;21.21;61.84
51460;BME280;37534;39.772;2.718;2023-11-21T14:40:10;101054.34;;;20.88;65.20
51460;BME280;37534;39.772;2.718;2023-11-21T14:42:36;101041.28;;;20.59;66.31
51460;BME280;37534;39.772;2.718;2023-11-21T14:45:04;101054.28;;;20.32;69.83
51460;BME280;37534;39.772;2.718;2023-11-21T14:47:32;101046.72;;;20.13;71.41
51460;BME280;37534;39.772;2.718;2023-11-21T14:50:00;101046.91;;;19.96;72.12
51460;BME280;37534;39.772;2.718;2023-11-21T14:52:37;101032.06;;;19.66;73.66
51460;BME280;37534;39.772;2.718;2023-11-21T14:55:15;101031.53;;;18.98;77.06
51460;BME280;37534;39.772;2.718;2023-11-21T14:57:46;101046.63;;;19.09;77.92
51460;BME280;37534;39.772;2.718;2023-11-21T15:00:21;101051.34;;;19.18;79.59
51460;BME280;37534;39.772;2.718;2023-11-21T15:03:02;101039.53;;;19.11;79.08
51460;BME280;37534;39.772;2.718;2023-11-21T15:05:49;101041.81;;;19.17;80.36
51460;BME280;37534;39.772;2.718;2023-11-21T15:08:37;101045.47;;;18.99;81.17
51460;BME280;37534;39.772;2.718;2023-11-21T15:11:03;101070.09;;;19.11;82.57
51460;BME280;37534;39.772;2.718;2023-11-21T15:13:32;101030.03;;;18.78;85.12
51460;BME280;37534;39.772;2.718;2023-11-21T15:15:58;101040.25;;;18.67;87.27
51460;BME280;37534;39.772;2.718;2023-11-21T15:18:33;101053.19;;;18.53;86.18
51460;BME280;37534;39.772;2.718;2023-11-21T15:20:59;101042.38;;;18.27;87.88
51460;BME280;37534;39.772;2.718;2023-11-21T15:23:25;101042.19;;;18.14;89.02
51460;BME280;37534;39.772;2.718;2023-11-21T15:25:53;101048.34;;;17.96;90.32
51460;BME280;37534;39.772;2.718;2023-11-21T15:28:19;101061.31;;;17.97;91.07
51460;BME280;37534;39.772;2.718;2023-11-21T15:30:44;101079.66;;;17.96;89.83
51460;BME280;37534;39.772;2.718;2023-11-21T15:33:13;101054.25;;;17.47;90.31
51460;BME280;37534;39.772;2.718;2023-11-21T15:35:38;101058.09;;;17.57;92.33
51460;BME280;37534;39.772;2.718;2023-11-21T15:38:06;101068.59;;;17.56;92.46
51460;BME280;37534;39.772;2.718;2023-11-21T15:40:33;101052.25;;;17.35;94.10
51460;BME280;37534;39.772;2.718;2023-11-21T15:42:59;101049.00;;;17.29;93.36
51460;BME280;37534;39.772;2.718;2023-11-21T15:45:25;101054.00;;;17.17;94.65
51460;BME280;37534;39.772;2.718;2023-11-21T15:47:51;101048.66;;;17.01;94.14
51460;BME280;37534;39.772;2.718;2023-11-21T15:50:18;101048.94;;;16.76;92.92
51460;BME280;37534;39.772;2.718;2023-11-21T15:52:44;101080.03;;;16.79;94.55
51460;BME280;37534;39.772;2.718;2023-11-21T15:55:11;101090.06;;;16.69;95.10
51460;BME280;37534;39.772;2.718;2023-11-21T15:57:36;101058.38;;;16.40;95.84
51460;BME280;37534;39.772;2.718;2023-11-21T16:00:02;101074.81;;;16.41;97.35
51460;BME280;37534;39.772;2.718;2023-11-21T16:02:36;101082.06;;;16.34;98.43
51460;BME280;37534;39.772;2.718;2023-11-21T16:05:04;101077.44;;;16.20;98.95
51460;BME280;37534;39.772;2.718;2023-11-21T16:07:30;101084.06;;;16.08;100.00
51460;BME280;37534;39.772;2.718;2023-11-21T16:09:56;101088.72;;;16.00;100.00
51460;BME280;37534;39.772;2.718;2023-11-21T16:12:22;101067.06;;;15.79;100.00
51460;BME280;37534;39.772;2.718;2023-11-21T16:29:20;101063.38;;;15.20;100.00
51460;BME280;37534;39.772;2.718;2023-11-21T16:35:36;101087.91;;;14.91;100.00
51460;BME280;37534;39.772;2.718;2023-11-21T16:38:04;101091.97;;;14.74;100.00
51460;BME280;37534;39.772;2.718;2023-11-21T16:40:35;101000.81;;;14.11;100.00
51460;BME280;37534;39.772;2.718;2023-11-21T16:43:04;101064.91;;;14.33;100.00
51460;BME280;37534;39.772;2.718;2023-11-21T16:45:30;101043.44;;;14.04;100.00
51460;BME280;37534;39.772;2.718;2023-11-21T16:47:56;101071.00;;;14.06;100.00
51460;BME280;37534;39.772;2.718;2023-11-21T16:50:22;101079.75;;;14.04;100.00
51460;BME280;37534;39.772;2.718;2023-11-21T16:56:36;101081.53;;;13.77;100.00
51460;BME280;37534;39.772;2.718;2023-11-21T16:59:10;101133.72;;;13.93;100.00
51460;BME280;37534;39.772;2.718;2023-11-21T17:01:43;101069.81;;;13.38;100.00
51460;BME280;37534;39.772;2.718;2023-11-21T17:04:15;101026.56;;;13.12;100.00
51460;BME280;37534;39.772;2.718;2023-11-21T17:06:44;101116.97;;;13.76;100.00
51460;BME280;37534;39.772;2.718;2023-11-21T17:09:11;101113.00;;;13.66;100.00
51460;BME280;37534;39.772;2.718;2023-11-21T17:11:42;101109.91;;;13.55;100.00
51460;BME280;37534;39.772;2.718;2023-11-21T17:14:08;101105.31;;;13.36;100.00
51460;BME280;37534;39.772;2.718;2023-11-21T17:16:34;101100.78;;;13.15;100.00
51460;BME280;37534;39.772;2.718;2023-11-21T17:19:01;101116.16;;;13.19;100.00
51460;BME280;37534;39.772;2.718;2023-11-21T17:21:29;101107.13;;;13.04;100.00
51460;BME280;37534;39.772;2.718;2023-11-21T17:23:56;101112.47;;;12.98;100.00
51460;BME280;37534;39.772;2.718;2023-11-21T17:26:22;101080.50;;;12.69;100.00
51460;BME280;37534;39.772;2.718;2023-11-21T17:28:48;101100.63;;;12.89;100.00
51460;BME280;37534;39.772;2.718;2023-11-21T17:31:18;101110.94;;;12.91;100.00
51460;BME280;37534;39.772;2.718;2023-11-21T17:33:44;101082.25;;;12.69;100.00
51460;BME280;37534;39.772;2.718;2023-11-21T17:36:10;101123.91;;;12.91;100.00
51460;BME280;37534;39.772;2.718;2023-11-21T17:38:39;101092.91;;;12.58;100.00
51460;BME280;37534;39.772;2.718;2023-11-21T17:41:05;101108.81;;;12.76;100.00
51460;BME280;37534;39.772;2.718;2023-11-21T17:43:30;101087.28;;;12.44;100.00
51460;BME280;37534;39.772;2.718;2023-11-21T17:46:04;101079.06;;;12.29;100.00
51460;BME280;37534;39.772;2.718;2023-11-21T17:48:30;101082.59;;;12.25;100.00
51460;BME280;37534;39.772;2.718;2023-11-21T17:50:56;101080.06;;;12.22;100.00
51460;BME280;37534;39.772;2.718;2023-11-21T17:53:21;101100.00;;;12.18;100.00
51460;BME280;37534;39.772;2.718;2023-11-21T17:55:48;101099.41;;;12.09;100.00
51460;BME280;37534;39.772;2.718;2023-11-21T17:58:13;101101.13;;;12.10;100.00
51460;BME280;37534;39.772;2.718;2023-11-21T18:00:39;101086.53;;;12.07;100.00
51460;BME280;37534;39.772;2.718;2023-11-21T18:03:05;101115.69;;;12.12;100.00
51460;BME280;37534;39.772;2.718;2023-11-21T18:05:30;101094.72;;;11.90;100.00
51460;BME280;37534;39.772;2.718;2023-11-21T18:07:59;101112.88;;;11.87;100.00
51460;BME280;37534;39.772;2.718;2023-11-21T18:10:25;101110.34;;;11.84;100.00
51460;BME280;37534;39.772;2.718;2023-11-21T18:12:51;101089.97;;;11.72;100.00
51460;BME280;37534;39.772;2.718;2023-11-21T18:15:16;101118.91;;;11.86;100.00
51460;BME280;37534;39.772;2.718;2023-11-21T18:17:44;101130.69;;;12.00;100.00
51460;BME280;37534;39.772;2.718;2023-11-21T18:20:10;101130.13;;;12.21;100.00
51460;BME280;37534;39.772;2.718;2023-11-21T18:22:36;101142.41;;;12.13;100.00
51460;BME280;37534;39.772;2.718;2023-11-21T18:25:03;101108.13;;;12.06;100.00
51460;BME280;37534;39.772;2.718;2023-11-21T18:27:29;101112.63;;;11.98;100.00
51460;BME280;37534;39.772;2.718;2023-11-21T18:29:56;101120.59;;;11.90;100.00
51460;BME280;37534;39.772;2.718;2023-11-21T18:32:22;101138.59;;;11.93;100.00
51460;BME280;37534;39.772;2.718;2023-11-21T18:34:48;101130.94;;;11.90;100.00
51460;BME280;37534;39.772;2.718;2023-11-21T18:37:15;101121.59;;;11.83;100.00
51460;BME280;37534;39.772;2.718;2023-11-21T18:39:41;101115.44;;;11.87;100.00
51460;BME280;37534;39.772;2.718;2023-11-21T18:42:07;101124.19;;;11.83;100.00
51460;BME280;37534;39.772;2.718;2023-11-21T18:44:33;101088.47;;;11.61;100.00
51460;BME280;37534;39.772;2.718;2023-11-21T18:46:59;101112.66;;;11.60;100.00
51460;BME280;37534;39.772;2.718;2023-11-21T18:49:25;101123.22;;;11.51;100.00
51460;BME280;37534;39.772;2.718;2023-11-21T18:51:51;101098.63;;;11.33;100.00
51460;BME280;37534;39.772;2.718;2023-11-21T18:54:17;101121.56;;;11.47;100.00
51460;BME280;37534;39.772;2.718;2023-11-21T18:56:43;101097.03;;;11.28;100.00
51460;BME280;37534;39.772;2.718;2023-11-21T18:59:11;101113.22;;;11.36;100.00
51460;BME280;37534;39.772;2.718;2023-11-21T19:01:37;101105.50;;;11.34;100.00
51460;BME280;37534;39.772;2.718;2023-11-21T19:04:04;101108.81;;;11.41;100.00
51460;BME280;37534;39.772;2.718;2023-11-21T19:06:30;101115.91;;;11.31;100.00
51460;BME280;37534;39.772;2.718;2023-11-21T19:08:55;101133.72;;;11.42;100.00
51460;BME280;37534;39.772;2.718;2023-11-21T19:11:21;101093.69;;;11.22;100.00
51460;BME280;37534;39.772;2.718;2023-11-21T19:13:50;101119.19;;;11.38;100.00
51460;BME280;37534;39.772;2.718;2023-11-21T19:16:16;101130.41;;;11.37;100.00
51460;BME280;37534;39.772;2.718;2023-11-21T19:18:42;101131.56;;;11.23;100.00
51460;BME280;37534;39.772;2.718;2023-11-21T19:21:16;101139.16;;;11.30;100.00
51460;BME280;37534;39.772;2.718;2023-11-21T19:23:46;101133.31;;;11.23;100.00
51460;BME280;37534;39.772;2.718;2023-11-21T19:26:12;101135.94;;;11.21;100.00
51460;BME280;37534;39.772;2.718;2023-11-21T19:28:39;101133.41;;;11.18;100.00
51460;BME280;37534;39.772;2.718;2023-11-21T19:31:05;101126.56;;;11.17;100.00
51460;BME280;37534;39.772;2.718;2023-11-21T19:33:33;101113.97;;;11.02;100.00
51460;BME280;37534;39.772;2.718;2023-11-21T19:36:00;101127.78;;;10.99;100.00
51460;BME280;37534;39.772;2.718;2023-11-21T19:38:25;101139.91;;;10.96;100.00
51460;BME280;37534;39.772;2.718;2023-11-21T19:40:51;101136.50;;;10.94;100.00
51460;BME280;37534;39.772;2.718;2023-11-21T19:43:17;101145.06;;;10.96;100.00
51460;BME280;37534;39.772;2.718;2023-11-21T19:45:42;101134.81;;;10.93;100.00
51460;BME280;37534;39.772;2.718;2023-11-21T19:48:08;101137.44;;;10.91;100.00
51460;BME280;37534;39.772;2.718;2023-11-21T19:50:34;101127.00;;;10.96;100.00
51460;BME280;37534;39.772;2.718;2023-11-21T19:53:00;101130.47;;;10.95;100.00
51460;BME280;37534;39.772;2.718;2023-11-21T19:55:26;101115.22;;;10.84;100.00
51460;BME280;37534;39.772;2.718;2023-11-21T19:57:52;101118.63;;;10.84;100.00
51460;BME280;37534;39.772;2.718;2023-11-21T20:00:18;101124.75;;;10.80;100.00
51460;BME280;37534;39.772;2.718;2023-11-21T20:02:43;101127.94;;;10.92;100.00
51460;BME280;37534;39.772;2.718;2023-11-21T20:05:10;101137.09;;;11.07;100.00
51460;BME280;37534;39.772;2.718;2023-11-21T20:07:40;101139.91;;;10.96;100.00
51460;BME280;37534;39.772;2.718;2023-11-21T20:10:10;101134.31;;;10.75;100.00
51460;BME280;37534;39.772;2.718;2023-11-21T20:12:37;101136.09;;;10.72;100.00
51460;BME280;37534;39.772;2.718;2023-11-21T20:15:03;101158.31;;;10.79;100.00
51460;BME280;37534;39.772;2.718;2023-11-21T20:17:29;101140.81;;;10.93;100.00
51460;BME280;37534;39.772;2.718;2023-11-21T20:19:55;101147.66;;;10.94;100.00
51460;BME280;37534;39.772;2.718;2023-11-21T20:22:21;101147.78;;;10.90;100.00
51460;BME280;37534;39.772;2.718;2023-11-21T20:24:46;101157.09;;;10.97;100.00
51460;BME280;37534;39.772;2.718;2023-11-21T20:27:15;101155.47;;;10.93;100.00
51460;BME280;37534;39.772;2.718;2023-11-21T20:29:42;101149.44;;;10.92;100.00
51460;BME280;37534;39.772;2.718;2023-11-21T20:32:09;101157.16;;;10.94;100.00
51460;BME280;37534;39.772;2.718;2023-11-21T20:34:37;101157.16;;;10.94;100.00
51460;BME280;37534;39.772;2.718;2023-11-21T20:37:03;101162.25;;;10.97;100.00
51460;BME280;37534;39.772;2.718;2023-11-21T20:39:30;101154.38;;;11.03;100.00
51460;BME280;37534;39.772;2.718;2023-11-21T20:41:55;101146.56;;;11.06;100.00
51460;BME280;37534;39.772;2.718;2023-11-21T20:44:22;101157.97;;;10.96;100.00
51460;BME280;37534;39.772;2.718;2023-11-21T20:46:48;101141.09;;;10.79;100.00
51460;BME280;37534;39.772;2.718;2023-11-21T20:49:14;101159.72;;;10.94;100.00
51460;BME280;37534;39.772;2.718;2023-11-21T20:51:41;101161.09;;;11.12;100.00
51460;BME280;37534;39.772;2.718;2023-11-21T20:54:07;101155.91;;;11.13;100.00
51460;BME280;37534;39.772;2.718;2023-11-21T20:56:33;101163.63;;;11.13;100.00
51460;BME280;37534;39.772;2.718;2023-11-21T20:58:59;101166.16;;;11.16;100.00
51460;BME280;37534;39.772;2.718;2023-11-21T21:01:34;101155.84;;;11.16;100.00
51460;BME280;37534;39.772;2.718;2023-11-21T21:04:00;101151.44;;;11.21;100.00
51460;BME280;37534;39.772;2.718;2023-11-21T21:06:29;101160.75;;;11.27;100.00
51460;BME280;37534;39.772;2.718;2023-11-21T21:08:54;101171.94;;;11.28;100.00
51460;BME280;37534;39.772;2.718;2023-11-21T21:11:21;101153.09;;;11.22;100.00
51460;BME280;37534;39.772;2.718;2023-11-21T21:13:47;101166.63;;;11.35;100.00
51460;BME280;37534;39.772;2.718;2023-11-21T21:16:13;101165.41;;;11.52;100.00
51460;BME280;37534;39.772;2.718;2023-11-21T21:18:39;101171.59;;;11.45;100.00
51460;BME280;37534;39.772;2.718;2023-11-21T21:21:05;101175.00;;;11.45;100.00
51460;BME280;37534;39.772;2.718;2023-11-21T21:23:30;101168.28;;;11.75;100.00
51460;BME280;37534;39.772;2.718;2023-11-21T21:25:56;101161.31;;;11.79;100.00
51460;BME280;37534;39.772;2.718;2023-11-21T21:28:22;101163.97;;;11.76;100.00
51460;BME280;37534;39.772;2.718;2023-11-21T21:30:48;101169.97;;;11.78;100.00
51460;BME280;37534;39.772;2.718;2023-11-21T21:33:14;101159.66;;;11.76;100.00
51460;BME280;37534;39.772;2.718;2023-11-21T21:35:40;101163.84;;;11.82;100.00
51460;BME280;37534;39.772;2.718;2023-11-21T21:38:05;101163.84;;;11.82;100.00
51460;BME280;37534;39.772;2.718;2023-11-21T21:40:31;101147.13;;;11.97;100.00
51460;BME280;37534;39.772;2.718;2023-11-21T21:42:59;101139.53;;;11.89;100.00
51460;BME280;37534;39.772;2.718;2023-11-21T21:45:26;101155.91;;;11.88;100.00
51460;BME280;37534;39.772;2.718;2023-11-21T21:47:52;101144.19;;;12.11;100.00
51460;BME280;37534;39.772;2.718;2023-11-21T21:50:17;101155.69;;;11.99;100.00
51460;BME280;37534;39.772;2.718;2023-11-21T21:52:45;101163.44;;;11.99;100.00
51460;BME280;37534;39.772;2.718;2023-11-21T21:55:11;101155.53;;;12.05;100.00
51460;BME280;37534;39.772;2.718;2023-11-21T21:57:44;101152.84;;;12.10;100.00